createdAt,value
2022-12-16T00:00:04.936Z,-1.20
2022-12-16T00:02:32.152Z,-1.20
2022-12-16T00:04:59.084Z,-1.10
2022-12-16T00:07:25.951Z,-1.10
2022-12-16T00:09:52.817Z,-1.00
2022-12-16T00:12:19.705Z,-1.00
2022-12-16T00:14:46.569Z,-1.10
2022-12-16T00:17:13.541Z,-1.10
2022-12-16T00:19:40.448Z,-1.20
2022-12-16T00:22:07.401Z,-1.30
2022-12-16T00:24:35.142Z,-1.40
2022-12-16T00:27:02.026Z,-1.50
2022-12-16T00:29:28.908Z,-1.60
2022-12-16T00:31:55.746Z,-1.60
2022-12-16T00:34:22.674Z,-1.60
2022-12-16T00:36:49.536Z,-1.60
2022-12-16T00:39:16.507Z,-1.60
2022-12-16T00:41:43.371Z,-1.60
2022-12-16T00:44:10.162Z,-1.60
2022-12-16T00:46:37.101Z,-1.60
2022-12-16T00:49:04.013Z,-1.60
2022-12-16T00:51:30.857Z,-1.60
2022-12-16T00:53:57.729Z,-1.60
2022-12-16T00:56:25.106Z,-1.60
2022-12-16T00:58:51.908Z,-1.60
2022-12-16T01:01:19.187Z,-1.60
2022-12-16T01:03:46.340Z,-1.50
2022-12-16T01:06:17.090Z,-1.50
2022-12-16T01:08:50.144Z,-1.40
2022-12-16T01:11:20.631Z,-1.30
2022-12-16T01:13:50.722Z,-1.40
2022-12-16T01:16:19.000Z,-1.50
2022-12-16T01:18:46.007Z,-1.60
2022-12-16T01:21:14.091Z,-1.80
2022-12-16T01:23:41.129Z,-1.90
2022-12-16T01:26:08.002Z,-2.00
2022-12-16T01:28:35.109Z,-2.00
2022-12-16T01:31:02.148Z,-2.10
2022-12-16T01:33:30.646Z,-2.10
2022-12-16T01:36:06.043Z,-2.20
2022-12-16T01:38:33.070Z,-2.30
2022-12-16T01:41:00.001Z,-2.30
2022-12-16T01:43:35.756Z,-2.30
2022-12-16T01:46:12.181Z,-2.30
2022-12-16T01:48:58.968Z,-2.40
2022-12-16T01:51:30.511Z,-2.40
2022-12-16T01:56:58.590Z,-2.40
2022-12-16T01:59:25.800Z,-2.40
2022-12-16T02:01:52.993Z,-2.40
2022-12-16T02:04:19.920Z,-2.40
2022-12-16T02:06:46.741Z,-2.40
2022-12-16T02:09:15.702Z,-2.50
2022-12-16T02:14:38.392Z,-2.50
2022-12-16T02:17:11.242Z,-2.60
2022-12-16T02:20:17.012Z,-2.60
2022-12-16T02:23:10.677Z,-2.60
2022-12-16T02:25:53.864Z,-2.50
2022-12-16T02:31:55.119Z,-2.50
2022-12-16T02:35:00.247Z,-2.50
2022-12-16T02:37:36.636Z,-2.60
2022-12-16T02:40:07.093Z,-2.60
2022-12-16T02:42:46.083Z,-2.60
2022-12-16T02:48:01.989Z,-2.60
2022-12-16T02:50:35.192Z,-2.70
2022-12-16T02:53:02.362Z,-2.70
2022-12-16T02:55:33.188Z,-2.80
2022-12-16T02:58:02.929Z,-2.70
2022-12-16T03:03:27.641Z,-2.70
2022-12-16T03:05:54.562Z,-2.70
2022-12-16T03:08:31.395Z,-2.70
2022-12-16T03:11:02.922Z,-2.80
2022-12-16T03:13:48.347Z,-2.80
2022-12-16T03:16:15.866Z,-2.70
2022-12-16T03:21:31.100Z,-2.70
2022-12-16T03:23:59.301Z,-2.80
2022-12-16T03:26:39.461Z,-2.80
2022-12-16T03:29:16.380Z,-2.80
2022-12-16T03:31:50.493Z,-2.80
2022-12-16T03:37:11.449Z,-2.70
2022-12-16T03:39:48.837Z,-2.70
2022-12-16T03:42:15.679Z,-2.70
2022-12-16T03:44:46.460Z,-2.60
2022-12-16T03:47:17.123Z,-2.70
2022-12-16T03:49:48.602Z,-2.70
2022-12-16T03:54:59.668Z,-2.80
2022-12-16T03:57:26.394Z,-2.80
2022-12-16T03:59:53.222Z,-2.90
2022-12-16T04:02:20.179Z,-2.90
2022-12-16T04:04:47.151Z,-3.00
2022-12-16T04:07:24.669Z,-3.10
2022-12-16T04:09:52.106Z,-3.10
2022-12-16T04:12:38.150Z,-3.10
2022-12-16T04:15:24.597Z,-3.10
2022-12-16T04:18:09.997Z,-3.20
2022-12-16T04:20:57.068Z,-3.20
2022-12-16T04:23:43.473Z,-3.20
2022-12-16T04:26:26.101Z,-3.10
2022-12-16T04:28:52.854Z,-3.10
2022-12-16T04:31:19.764Z,-3.00
2022-12-16T04:34:05.052Z,-3.00
2022-12-16T04:36:50.409Z,-3.10
2022-12-16T04:39:35.694Z,-3.20
2022-12-16T04:45:24.482Z,-3.20
2022-12-16T04:48:09.836Z,-3.20
2022-12-16T04:50:55.049Z,-3.20
2022-12-16T04:53:40.393Z,-3.30
2022-12-16T04:56:25.936Z,-3.30
2022-12-16T05:02:14.835Z,-3.40
2022-12-16T05:05:00.221Z,-3.30
2022-12-16T05:07:45.780Z,-3.40
2022-12-16T05:10:31.286Z,-3.30
2022-12-16T05:13:16.768Z,-3.40
2022-12-16T05:16:02.197Z,-3.40
2022-12-16T05:18:47.714Z,-3.40
2022-12-16T05:21:33.034Z,-3.40
2022-12-16T05:24:18.354Z,-3.40
2022-12-16T05:27:03.726Z,-3.40
2022-12-16T05:29:49.168Z,-3.50
2022-12-16T05:32:43.835Z,-3.50
2022-12-16T05:35:29.166Z,-3.50
2022-12-16T05:38:14.626Z,-3.60
2022-12-16T05:40:59.907Z,-3.60
2022-12-16T05:43:45.464Z,-3.60
2022-12-16T05:46:31.220Z,-3.60
2022-12-16T05:49:33.681Z,-3.60
2022-12-16T05:52:19.057Z,-3.70
2022-12-16T05:55:04.688Z,-3.60
2022-12-16T05:57:49.878Z,-3.70
2022-12-16T06:00:35.322Z,-3.70
2022-12-16T06:03:20.868Z,-3.70
2022-12-16T06:06:06.146Z,-3.70
2022-12-16T06:08:51.764Z,-3.70
2022-12-16T06:11:36.879Z,-3.70
2022-12-16T06:14:22.328Z,-3.70
2022-12-16T06:17:07.422Z,-3.80
2022-12-16T06:19:52.652Z,-3.80
2022-12-16T06:22:38.276Z,-3.80
2022-12-16T06:25:23.616Z,-3.80
2022-12-16T06:28:10.086Z,-3.80
2022-12-16T06:30:55.434Z,-3.90
2022-12-16T06:33:41.351Z,-3.90
2022-12-16T06:36:27.439Z,-4.00
2022-12-16T06:39:12.739Z,-3.90
2022-12-16T06:41:58.249Z,-4.00
2022-12-16T06:44:43.589Z,-4.00
2022-12-16T06:47:29.216Z,-4.00
2022-12-16T06:50:14.703Z,-3.90
2022-12-16T06:53:01.601Z,-3.90
2022-12-16T06:55:47.543Z,-3.90
2022-12-16T06:58:32.797Z,-3.90
2022-12-16T07:01:18.352Z,-3.90
2022-12-16T07:04:04.112Z,-3.90
2022-12-16T07:06:49.586Z,-4.00
2022-12-16T07:09:34.954Z,-4.00
2022-12-16T07:12:20.194Z,-4.00
2022-12-16T07:15:05.677Z,-3.90
2022-12-16T07:17:51.057Z,-3.80
2022-12-16T07:20:36.390Z,-3.80
2022-12-16T07:23:21.712Z,-3.90
2022-12-16T07:26:07.853Z,-3.90
2022-12-16T07:28:53.172Z,-3.90
2022-12-16T07:31:39.014Z,-3.90
2022-12-16T07:34:24.375Z,-4.00
2022-12-16T07:37:09.832Z,-4.00
2022-12-16T07:39:55.695Z,-4.00
2022-12-16T07:42:41.858Z,-3.90
2022-12-16T07:45:27.818Z,-4.00
2022-12-16T07:48:13.408Z,-4.00
2022-12-16T07:50:58.791Z,-4.00
2022-12-16T07:53:44.168Z,-4.00
2022-12-16T07:56:29.494Z,-4.00
2022-12-16T07:59:15.159Z,-3.90
2022-12-16T08:02:00.506Z,-3.90
2022-12-16T08:04:45.965Z,-3.90
2022-12-16T08:07:33.486Z,-3.90
2022-12-16T08:10:18.754Z,-3.90
2022-12-16T08:13:04.109Z,-3.90
2022-12-16T08:15:49.552Z,-3.80
2022-12-16T08:18:34.844Z,-3.80
2022-12-16T08:21:20.136Z,-3.70
2022-12-16T08:24:05.697Z,-3.50
2022-12-16T08:26:51.241Z,-3.60
2022-12-16T08:29:45.184Z,-3.50
2022-12-16T08:32:32.827Z,-3.30
2022-12-16T08:35:18.239Z,-3.30
2022-12-16T08:38:09.060Z,-3.30
2022-12-16T08:41:00.212Z,-3.30
2022-12-16T08:43:45.568Z,-3.30
2022-12-16T08:46:31.032Z,-3.40
2022-12-16T08:52:07.105Z,-3.40
2022-12-16T08:54:52.382Z,-3.40
2022-12-16T08:57:38.817Z,-3.40
2022-12-16T09:00:24.694Z,-3.40
2022-12-16T09:03:19.707Z,-3.40
2022-12-16T09:06:05.408Z,-3.30
2022-12-16T09:08:50.685Z,-3.20
2022-12-16T09:11:36.546Z,-3.10
2022-12-16T09:14:22.033Z,-2.90
2022-12-16T09:17:07.721Z,-2.80
2022-12-16T09:19:54.197Z,-2.80
2022-12-16T09:22:40.715Z,-2.80
2022-12-16T09:25:26.212Z,-2.80
2022-12-16T09:28:11.697Z,-2.70
2022-12-16T09:30:57.279Z,-2.60
2022-12-16T09:33:42.728Z,-2.50
2022-12-16T09:36:28.167Z,-2.40
2022-12-16T09:39:13.628Z,-2.30
2022-12-16T09:42:03.585Z,-2.20
2022-12-16T09:45:07.105Z,-2.10
2022-12-16T09:48:46.554Z,-2.00
2022-12-16T09:51:32.339Z,-1.90
2022-12-16T09:54:17.636Z,-1.80
2022-12-16T09:57:03.597Z,-1.90
2022-12-16T09:59:52.966Z,-1.90
2022-12-16T10:02:39.776Z,-1.90
2022-12-16T10:05:31.918Z,-1.90
2022-12-16T10:08:52.214Z,-1.80
2022-12-16T10:11:42.465Z,-1.70
2022-12-16T10:14:29.549Z,-1.60
2022-12-16T10:17:34.051Z,-1.60
2022-12-16T10:20:28.929Z,-1.40
2022-12-16T10:23:44.575Z,-1.40
2022-12-16T10:26:44.062Z,-1.30
2022-12-16T10:29:37.283Z,-1.20
2022-12-16T10:32:33.666Z,-1.20
2022-12-16T10:35:19.615Z,-1.20
2022-12-16T10:38:04.752Z,-1.10
2022-12-16T10:40:50.926Z,-1.10
2022-12-16T10:43:56.737Z,-1.00
2022-12-16T10:46:43.733Z,-1.00
2022-12-16T10:49:33.901Z,-0.90
2022-12-16T10:52:19.321Z,-0.90
2022-12-16T10:55:28.704Z,-0.90
2022-12-16T10:58:35.861Z,-0.90
2022-12-16T11:01:21.947Z,-0.80
2022-12-16T11:04:07.550Z,-0.80
2022-12-16T11:06:56.957Z,-0.80
2022-12-16T11:09:50.196Z,-0.70
2022-12-16T11:12:46.254Z,-0.70
2022-12-16T11:15:42.859Z,-0.70
2022-12-16T11:18:33.461Z,-0.60
2022-12-16T11:21:25.063Z,-0.60
2022-12-16T11:24:40.462Z,-0.60
2022-12-16T11:27:40.404Z,-0.60
2022-12-16T11:30:32.086Z,-0.50
2022-12-16T11:33:19.145Z,-0.50
2022-12-16T11:36:10.821Z,-0.50
2022-12-16T11:39:04.741Z,-0.50
2022-12-16T11:41:54.701Z,-0.50
2022-12-16T11:44:48.537Z,-0.40
2022-12-16T11:48:03.480Z,-0.40
2022-12-16T11:50:50.217Z,-0.30
2022-12-16T11:53:58.832Z,-0.30
2022-12-16T11:56:50.647Z,-0.30
2022-12-16T11:59:45.175Z,-0.30
2022-12-16T12:02:41.435Z,-0.20
2022-12-16T12:05:34.003Z,-0.20
2022-12-16T12:08:35.546Z,-0.10
2022-12-16T12:11:36.130Z,-0.10
2022-12-16T12:14:29.206Z,-0.10
2022-12-16T12:17:46.470Z,0.00
2022-12-16T12:20:51.005Z,0.00
2022-12-16T12:24:06.176Z,0.00
2022-12-16T12:26:53.142Z,0.10
2022-12-16T12:29:50.751Z,0.10
2022-12-16T12:32:42.213Z,0.20
2022-12-16T12:35:55.643Z,0.20
2022-12-16T12:39:01.453Z,0.30
2022-12-16T12:42:00.109Z,0.30
2022-12-16T12:45:02.109Z,0.40
2022-12-16T12:47:47.594Z,0.40
2022-12-16T12:50:35.469Z,0.50
2022-12-16T12:53:27.283Z,0.50
2022-12-16T12:56:12.700Z,0.60
2022-12-16T12:58:57.901Z,0.60
2022-12-16T13:01:45.743Z,0.60
2022-12-16T13:04:32.840Z,0.70
2022-12-16T13:07:18.711Z,0.70
2022-12-16T13:10:04.460Z,0.70
2022-12-16T13:12:52.377Z,0.80
2022-12-16T13:15:57.811Z,0.80
2022-12-16T13:18:45.313Z,0.80
2022-12-16T13:22:02.787Z,0.80
2022-12-16T13:25:13.453Z,0.80
2022-12-16T13:28:12.602Z,0.90
2022-12-16T13:31:00.838Z,0.90
2022-12-16T13:33:49.711Z,0.90
2022-12-16T13:36:38.862Z,0.90
2022-12-16T13:39:45.287Z,1.00
2022-12-16T13:43:10.047Z,1.00
2022-12-16T13:45:56.788Z,1.00
2022-12-16T13:48:47.810Z,1.00
2022-12-16T13:51:55.086Z,1.00
2022-12-16T13:55:11.572Z,1.00
2022-12-16T13:57:59.569Z,1.10
2022-12-16T14:00:45.586Z,1.10
2022-12-16T14:03:55.204Z,1.10
2022-12-16T14:06:41.697Z,1.10
2022-12-16T14:09:56.346Z,1.10
2022-12-16T14:13:11.956Z,1.20
2022-12-16T14:16:20.594Z,1.20
2022-12-16T14:19:05.919Z,1.20
2022-12-16T14:22:12.947Z,1.20
2022-12-16T14:24:58.562Z,1.10
2022-12-16T14:27:43.758Z,1.10
2022-12-16T14:30:49.317Z,1.10
2022-12-16T14:33:45.678Z,1.20
2022-12-16T14:36:45.441Z,1.20
2022-12-16T14:39:50.591Z,1.10
2022-12-16T14:42:44.274Z,1.10
2022-12-16T14:45:50.045Z,1.10
2022-12-16T14:48:49.885Z,1.10
2022-12-16T14:51:44.926Z,1.00
2022-12-16T14:54:36.233Z,1.00
2022-12-16T14:57:22.621Z,1.00
2022-12-16T15:00:38.658Z,1.00
2022-12-16T15:03:43.609Z,1.00
2022-12-16T15:06:36.613Z,1.00
2022-12-16T15:09:22.579Z,0.90
2022-12-16T15:12:09.647Z,1.00
2022-12-16T15:14:56.509Z,1.00
2022-12-16T15:17:46.517Z,0.90
2022-12-16T15:20:43.700Z,0.90
2022-12-16T15:23:41.247Z,0.90
2022-12-16T15:26:27.323Z,0.90
2022-12-16T15:29:13.232Z,0.90
2022-12-16T15:32:03.096Z,0.80
2022-12-16T15:35:06.523Z,0.80
2022-12-16T15:38:03.623Z,0.80
2022-12-16T15:40:50.770Z,0.80
2022-12-16T15:43:52.589Z,0.80
2022-12-16T15:46:42.344Z,0.70
2022-12-16T15:50:03.632Z,0.70
2022-12-16T15:52:56.891Z,0.70
2022-12-16T15:56:02.536Z,0.60
2022-12-16T15:58:51.565Z,0.60
2022-12-16T16:01:44.464Z,0.60
2022-12-16T16:04:34.953Z,0.50
2022-12-16T16:07:20.333Z,0.50
2022-12-16T16:10:05.876Z,0.40
2022-12-16T16:12:51.394Z,0.40
2022-12-16T16:15:36.943Z,0.40
2022-12-16T16:18:23.770Z,0.40
2022-12-16T16:21:09.706Z,0.30
2022-12-16T16:23:55.257Z,0.20
2022-12-16T16:26:41.536Z,0.20
2022-12-16T16:29:28.835Z,0.10
2022-12-16T16:32:14.344Z,0.10
2022-12-16T16:34:59.707Z,0.00
2022-12-16T16:37:45.091Z,-0.10
2022-12-16T16:40:44.384Z,-0.10
2022-12-16T16:43:30.353Z,-0.20
2022-12-16T16:46:16.229Z,-0.20
2022-12-16T16:49:01.566Z,-0.20
2022-12-16T16:51:47.063Z,-0.30
2022-12-16T16:54:32.458Z,-0.30
2022-12-16T16:57:20.993Z,-0.30
2022-12-16T17:00:06.573Z,-0.30
2022-12-16T17:02:52.128Z,-0.30
2022-12-16T17:05:37.847Z,-0.40
2022-12-16T17:08:23.184Z,-0.40
2022-12-16T17:11:08.777Z,-0.50
2022-12-16T17:13:54.399Z,-0.50
2022-12-16T17:16:39.700Z,-0.50
2022-12-16T17:19:25.202Z,-0.60
2022-12-16T17:22:10.493Z,-0.70
2022-12-16T17:24:55.901Z,-0.70
2022-12-16T17:27:42.728Z,-0.70
2022-12-16T17:30:47.036Z,-0.70
2022-12-16T17:33:34.399Z,-0.80
2022-12-16T17:36:20.094Z,-0.80
2022-12-16T17:39:05.818Z,-0.80
2022-12-16T17:41:51.674Z,-0.70
2022-12-16T17:44:37.223Z,-0.70
2022-12-16T17:47:22.960Z,-0.80
2022-12-16T17:50:08.530Z,-0.70
2022-12-16T17:52:53.962Z,-0.70
2022-12-16T17:55:39.836Z,-0.70
2022-12-16T17:58:25.314Z,-0.70
2022-12-16T18:01:10.516Z,-0.80
2022-12-16T18:03:56.091Z,-0.80
2022-12-16T18:06:41.392Z,-0.80
2022-12-16T18:09:26.780Z,-0.80
2022-12-16T18:12:12.110Z,-0.90
2022-12-16T18:14:59.223Z,-0.90
2022-12-16T18:17:44.858Z,-0.90
2022-12-16T18:20:30.249Z,-0.90
2022-12-16T18:23:15.607Z,-1.00
2022-12-16T18:26:01.155Z,-1.00
2022-12-16T18:28:46.556Z,-1.00
2022-12-16T18:31:32.270Z,-1.00
2022-12-16T18:34:17.799Z,-1.10
2022-12-16T18:37:03.497Z,-1.10
2022-12-16T18:39:49.245Z,-1.20
2022-12-16T18:42:35.023Z,-1.20
2022-12-16T18:45:20.401Z,-1.30
2022-12-16T18:48:05.964Z,-1.30
2022-12-16T18:50:51.741Z,-1.30
2022-12-16T18:53:37.855Z,-1.40
2022-12-16T18:56:25.298Z,-1.40
2022-12-16T18:59:11.157Z,-1.40
2022-12-16T19:01:57.182Z,-1.40
2022-12-16T19:04:42.593Z,-1.40
2022-12-16T19:07:31.692Z,-1.30
2022-12-16T19:10:19.103Z,-1.30
2022-12-16T19:13:04.370Z,-1.30
2022-12-16T19:15:49.854Z,-1.30
2022-12-16T19:18:35.451Z,-1.30
2022-12-16T19:21:21.223Z,-1.30
2022-12-16T19:24:07.321Z,-1.30
2022-12-16T19:26:53.085Z,-1.40
2022-12-16T19:29:42.566Z,-1.30
2022-12-16T19:32:30.165Z,-1.40
2022-12-16T19:35:15.626Z,-1.40
2022-12-16T19:38:01.036Z,-1.40
2022-12-16T19:40:46.450Z,-1.40
2022-12-16T19:43:32.041Z,-1.50
2022-12-16T19:46:17.666Z,-1.50
2022-12-16T19:49:19.842Z,-1.50
2022-12-16T19:52:05.362Z,-1.60
2022-12-16T19:54:51.769Z,-1.70
2022-12-16T19:57:37.114Z,-1.80
2022-12-16T20:00:23.965Z,-1.90
2022-12-16T20:03:09.497Z,-1.90
2022-12-16T20:05:55.605Z,-1.90
2022-12-16T20:08:41.871Z,-1.90
2022-12-16T20:11:27.692Z,-1.90
2022-12-16T20:14:13.646Z,-1.90
2022-12-16T20:16:59.679Z,-2.00
2022-12-16T20:19:45.503Z,-1.90
2022-12-16T20:22:30.897Z,-1.90
2022-12-16T20:25:16.183Z,-1.90
2022-12-16T20:28:18.039Z,-1.90
2022-12-16T20:31:06.077Z,-1.90
2022-12-16T20:33:51.436Z,-1.90
2022-12-16T20:36:37.046Z,-2.00
2022-12-16T20:39:25.529Z,-2.10
2022-12-16T20:42:10.806Z,-2.20
2022-12-16T20:44:56.485Z,-2.30
2022-12-16T20:47:41.921Z,-2.30
2022-12-16T20:50:27.268Z,-2.30
2022-12-16T20:53:12.430Z,-2.30
2022-12-16T20:55:57.870Z,-2.30
2022-12-16T20:58:43.465Z,-2.40
2022-12-16T21:01:28.840Z,-2.40
2022-12-16T21:04:14.318Z,-2.40
2022-12-16T21:06:59.625Z,-2.40
2022-12-16T21:09:45.000Z,-2.40
2022-12-16T21:12:30.513Z,-2.50
2022-12-16T21:15:15.868Z,-2.60
2022-12-16T21:18:01.214Z,-2.60
2022-12-16T21:20:47.038Z,-2.60
2022-12-16T21:23:32.371Z,-2.60
2022-12-16T21:26:17.939Z,-2.60
2022-12-16T21:29:03.158Z,-2.60
2022-12-16T21:31:48.597Z,-2.60
2022-12-16T21:34:33.977Z,-2.70
2022-12-16T21:37:19.398Z,-2.70
2022-12-16T21:40:04.774Z,-2.70
2022-12-16T21:42:50.166Z,-2.70
2022-12-16T21:45:35.585Z,-2.70
2022-12-16T21:48:21.028Z,-2.70
2022-12-16T21:51:10.888Z,-2.70
2022-12-16T21:53:56.884Z,-2.70
2022-12-16T21:56:42.436Z,-2.70
2022-12-16T21:59:28.078Z,-2.60
2022-12-16T22:02:13.491Z,-2.70
2022-12-16T22:04:58.838Z,-2.70
2022-12-16T22:07:45.757Z,-2.70
2022-12-16T22:10:31.248Z,-2.70
2022-12-16T22:13:18.269Z,-2.80
2022-12-16T22:16:13.855Z,-2.80
2022-12-16T22:18:59.533Z,-2.90
2022-12-16T22:21:45.868Z,-2.90
2022-12-16T22:24:31.211Z,-2.90
2022-12-16T22:27:16.521Z,-2.90
2022-12-16T22:30:01.871Z,-3.00
2022-12-16T22:32:47.311Z,-3.10
2022-12-16T22:35:32.848Z,-3.00
2022-12-16T22:38:18.162Z,-3.00
2022-12-16T22:41:11.875Z,-3.00
2022-12-16T22:43:57.206Z,-3.00
2022-12-16T22:46:42.843Z,-3.00
2022-12-16T22:49:28.477Z,-3.00
2022-12-16T22:52:13.887Z,-2.90
2022-12-16T22:55:02.241Z,-2.90
2022-12-16T22:57:48.479Z,-2.90
2022-12-16T23:00:34.624Z,-2.90
2022-12-16T23:03:20.128Z,-2.80
2022-12-16T23:06:05.569Z,-2.90
2022-12-16T23:08:51.118Z,-2.90
2022-12-16T23:11:50.862Z,-2.90
2022-12-16T23:14:42.567Z,-2.90
2022-12-16T23:17:29.016Z,-3.00
2022-12-16T23:20:14.641Z,-3.00
2022-12-16T23:23:00.074Z,-3.00
2022-12-16T23:25:45.598Z,-3.00
2022-12-16T23:28:41.570Z,-2.90
2022-12-16T23:31:27.593Z,-2.90
2022-12-16T23:34:13.533Z,-2.90
2022-12-16T23:36:59.013Z,-2.90
2022-12-16T23:39:44.441Z,-2.90
2022-12-16T23:42:29.841Z,-2.90
2022-12-16T23:45:15.114Z,-2.90
2022-12-16T23:48:00.544Z,-2.90
2022-12-16T23:50:46.272Z,-2.90
2022-12-16T23:53:31.835Z,-2.90
2022-12-16T23:56:18.173Z,-3.00
2022-12-16T23:59:05.580Z,-3.00
